sensor_id;sensor_type;location;lat;lon;timestamp;P1;durP1;ratioP1;P2;durP2;ratioP2
3299;SDS011;1662;49.310;8.134;2022-09-03T00:07:36;6.33;;;6.13;;
3299;SDS011;1662;49.310;8.134;2022-09-03T00:10:08;6.70;;;6.37;;
3299;SDS011;1662;49.310;8.134;2022-09-03T00:12:39;6.07;;;5.87;;
3299;SDS011;1662;49.310;8.134;2022-09-03T00:15:09;5.90;;;5.70;;
3299;SDS011;1662;49.310;8.134;2022-09-03T00:20:18;6.50;;;6.30;;
3299;SDS011;1662;49.310;8.134;2022-09-03T00:23:11;5.80;;;5.60;;
3299;SDS011;1662;49.310;8.134;2022-09-03T00:28:15;6.17;;;5.97;;
3299;SDS011;1662;49.310;8.134;2022-09-03T00:30:51;6.00;;;5.87;;
3299;SDS011;1662;49.310;8.134;2022-09-03T00:33:25;5.80;;;5.60;;
3299;SDS011;1662;49.310;8.134;2022-09-03T00:36:04;6.47;;;6.27;;
3299;SDS011;1662;49.310;8.134;2022-09-03T00:38:39;6.00;;;5.80;;
3299;SDS011;1662;49.310;8.134;2022-09-03T00:46:22;6.63;;;6.43;;
3299;SDS011;1662;49.310;8.134;2022-09-03T00:51:46;6.40;;;6.10;;
3299;SDS011;1662;49.310;8.134;2022-09-03T00:54:27;6.73;;;6.33;;
3299;SDS011;1662;49.310;8.134;2022-09-03T01:10:30;6.50;;;6.20;;
3299;SDS011;1662;49.310;8.134;2022-09-03T01:13:20;5.93;;;5.83;;
3299;SDS011;1662;49.310;8.134;2022-09-03T01:26:48;6.50;;;6.30;;
3299;SDS011;1662;49.310;8.134;2022-09-03T01:29:12;6.43;;;6.23;;
3299;SDS011;1662;49.310;8.134;2022-09-03T01:43:00;6.40;;;6.30;;
3299;SDS011;1662;49.310;8.134;2022-09-03T01:56:01;6.50;;;6.30;;
3299;SDS011;1662;49.310;8.134;2022-09-03T01:58:41;6.33;;;5.93;;
3299;SDS011;1662;49.310;8.134;2022-09-03T02:01:13;6.17;;;5.97;;
3299;SDS011;1662;49.310;8.134;2022-09-03T02:03:47;5.83;;;5.67;;
3299;SDS011;1662;49.310;8.134;2022-09-03T02:06:14;6.90;;;6.50;;
3299;SDS011;1662;49.310;8.134;2022-09-03T02:08:44;6.93;;;6.43;;
3299;SDS011;1662;49.310;8.134;2022-09-03T02:11:10;6.20;;;6.00;;
3299;SDS011;1662;49.310;8.134;2022-09-03T02:16:14;6.37;;;6.10;;
3299;SDS011;1662;49.310;8.134;2022-09-03T02:19:14;5.73;;;5.63;;
3299;SDS011;1662;49.310;8.134;2022-09-03T02:21:41;6.00;;;5.80;;
3299;SDS011;1662;49.310;8.134;2022-09-03T02:24:11;6.73;;;6.43;;
3299;SDS011;1662;49.310;8.134;2022-09-03T02:26:37;6.33;;;6.03;;
3299;SDS011;1662;49.310;8.134;2022-09-03T02:29:03;6.20;;;5.80;;
3299;SDS011;1662;49.310;8.134;2022-09-03T02:31:29;6.50;;;6.30;;
3299;SDS011;1662;49.310;8.134;2022-09-03T02:33:55;6.00;;;5.90;;
3299;SDS011;1662;49.310;8.134;2022-09-03T02:36:29;6.70;;;6.40;;
3299;SDS011;1662;49.310;8.134;2022-09-03T02:38:58;6.60;;;6.30;;
3299;SDS011;1662;49.310;8.134;2022-09-03T02:41:26;6.03;;;5.93;;
3299;SDS011;1662;49.310;8.134;2022-09-03T02:46:51;5.73;;;5.63;;
3299;SDS011;1662;49.310;8.134;2022-09-03T02:49:20;6.10;;;5.90;;
3299;SDS011;1662;49.310;8.134;2022-09-03T02:51:48;6.73;;;6.27;;
3299;SDS011;1662;49.310;8.134;2022-09-03T02:54:14;6.30;;;6.10;;
3299;SDS011;1662;49.310;8.134;2022-09-03T02:56:39;6.20;;;6.00;;
3299;SDS011;1662;49.310;8.134;2022-09-03T02:59:06;6.60;;;6.00;;
3299;SDS011;1662;49.310;8.134;2022-09-03T03:01:32;5.90;;;5.70;;
3299;SDS011;1662;49.310;8.134;2022-09-03T03:03:59;6.43;;;6.13;;
3299;SDS011;1662;49.310;8.134;2022-09-03T03:06:25;6.03;;;5.83;;
3299;SDS011;1662;49.310;8.134;2022-09-03T03:08:50;6.00;;;5.80;;
3299;SDS011;1662;49.310;8.134;2022-09-03T03:11:17;5.73;;;5.63;;
3299;SDS011;1662;49.310;8.134;2022-09-03T03:13:46;6.13;;;5.93;;
3299;SDS011;1662;49.310;8.134;2022-09-03T03:16:12;6.37;;;6.07;;
3299;SDS011;1662;49.310;8.134;2022-09-03T03:18:39;6.10;;;5.70;;
3299;SDS011;1662;49.310;8.134;2022-09-03T03:21:10;6.27;;;6.07;;
3299;SDS011;1662;49.310;8.134;2022-09-03T03:23:38;6.60;;;6.30;;
3299;SDS011;1662;49.310;8.134;2022-09-03T03:26:05;6.17;;;5.87;;
3299;SDS011;1662;49.310;8.134;2022-09-03T03:28:33;6.00;;;5.70;;
3299;SDS011;1662;49.310;8.134;2022-09-03T03:31:08;5.37;;;5.27;;
3299;SDS011;1662;49.310;8.134;2022-09-03T03:33:36;6.30;;;5.80;;
3299;SDS011;1662;49.310;8.134;2022-09-03T03:36:06;5.83;;;5.63;;
3299;SDS011;1662;49.310;8.134;2022-09-03T03:38:34;6.40;;;6.00;;
3299;SDS011;1662;49.310;8.134;2022-09-03T03:41:05;6.77;;;6.30;;
3299;SDS011;1662;49.310;8.134;2022-09-03T03:43:38;6.30;;;6.00;;
3299;SDS011;1662;49.310;8.134;2022-09-03T03:46:04;5.83;;;5.73;;
3299;SDS011;1662;49.310;8.134;2022-09-03T03:48:33;6.20;;;6.00;;
3299;SDS011;1662;49.310;8.134;2022-09-03T03:51:02;6.60;;;6.10;;
3299;SDS011;1662;49.310;8.134;2022-09-03T03:53:35;5.80;;;5.70;;
3299;SDS011;1662;49.310;8.134;2022-09-03T03:56:02;6.20;;;6.00;;
3299;SDS011;1662;49.310;8.134;2022-09-03T03:58:31;6.20;;;6.00;;
3299;SDS011;1662;49.310;8.134;2022-09-03T04:01:04;6.20;;;6.00;;
3299;SDS011;1662;49.310;8.134;2022-09-03T04:03:31;6.10;;;5.87;;
3299;SDS011;1662;49.310;8.134;2022-09-03T04:05:57;6.30;;;6.10;;
3299;SDS011;1662;49.310;8.134;2022-09-03T04:08:24;6.20;;;5.90;;
3299;SDS011;1662;49.310;8.134;2022-09-03T04:10:51;6.00;;;5.60;;
3299;SDS011;1662;49.310;8.134;2022-09-03T04:13:19;6.07;;;5.70;;
3299;SDS011;1662;49.310;8.134;2022-09-03T04:15:44;5.90;;;5.70;;
3299;SDS011;1662;49.310;8.134;2022-09-03T04:18:10;5.30;;;5.20;;
3299;SDS011;1662;49.310;8.134;2022-09-03T04:20:36;5.37;;;5.20;;
3299;SDS011;1662;49.310;8.134;2022-09-03T04:23:02;5.63;;;5.43;;
3299;SDS011;1662;49.310;8.134;2022-09-03T04:25:29;5.20;;;5.00;;
3299;SDS011;1662;49.310;8.134;2022-09-03T04:27:55;5.93;;;5.63;;
3299;SDS011;1662;49.310;8.134;2022-09-03T04:30:21;5.10;;;4.90;;
3299;SDS011;1662;49.310;8.134;2022-09-03T04:32:49;5.07;;;4.97;;
3299;SDS011;1662;49.310;8.134;2022-09-03T04:35:21;5.37;;;5.20;;
3299;SDS011;1662;49.310;8.134;2022-09-03T04:37:53;5.50;;;5.00;;
3299;SDS011;1662;49.310;8.134;2022-09-03T04:40:19;5.00;;;4.80;;
3299;SDS011;1662;49.310;8.134;2022-09-03T04:42:47;5.67;;;5.37;;
3299;SDS011;1662;49.310;8.134;2022-09-03T04:45:13;4.67;;;4.47;;
3299;SDS011;1662;49.310;8.134;2022-09-03T04:47:42;5.50;;;5.10;;
3299;SDS011;1662;49.310;8.134;2022-09-03T04:50:10;5.07;;;4.63;;
3299;SDS011;1662;49.310;8.134;2022-09-03T04:52:37;5.60;;;4.60;;
3299;SDS011;1662;49.310;8.134;2022-09-03T04:55:03;4.50;;;4.30;;
3299;SDS011;1662;49.310;8.134;2022-09-03T04:57:29;5.00;;;4.70;;
3299;SDS011;1662;49.310;8.134;2022-09-03T04:59:59;5.00;;;4.70;;
3299;SDS011;1662;49.310;8.134;2022-09-03T05:02:25;4.50;;;4.33;;
3299;SDS011;1662;49.310;8.134;2022-09-03T05:04:50;5.23;;;4.83;;
3299;SDS011;1662;49.310;8.134;2022-09-03T05:07:17;5.40;;;5.07;;
3299;SDS011;1662;49.310;8.134;2022-09-03T05:09:44;5.43;;;5.13;;
3299;SDS011;1662;49.310;8.134;2022-09-03T05:12:12;5.20;;;5.00;;
3299;SDS011;1662;49.310;8.134;2022-09-03T05:14:38;5.07;;;4.87;;
3299;SDS011;1662;49.310;8.134;2022-09-03T05:17:03;4.93;;;4.73;;
3299;SDS011;1662;49.310;8.134;2022-09-03T05:19:29;4.70;;;4.50;;
3299;SDS011;1662;49.310;8.134;2022-09-03T05:21:57;4.30;;;4.10;;
3299;SDS011;1662;49.310;8.134;2022-09-03T05:24:23;4.10;;;4.00;;
3299;SDS011;1662;49.310;8.134;2022-09-03T05:26:49;4.60;;;4.40;;
3299;SDS011;1662;49.310;8.134;2022-09-03T05:29:19;4.93;;;4.70;;
3299;SDS011;1662;49.310;8.134;2022-09-03T05:31:47;4.97;;;4.50;;
3299;SDS011;1662;49.310;8.134;2022-09-03T05:34:12;5.13;;;4.83;;
3299;SDS011;1662;49.310;8.134;2022-09-03T05:36:40;4.70;;;4.50;;
3299;SDS011;1662;49.310;8.134;2022-09-03T05:39:06;4.17;;;3.97;;
3299;SDS011;1662;49.310;8.134;2022-09-03T05:41:32;4.70;;;4.30;;
3299;SDS011;1662;49.310;8.134;2022-09-03T05:43:58;4.97;;;4.70;;
3299;SDS011;1662;49.310;8.134;2022-09-03T05:46:28;7.77;;;4.27;;
3299;SDS011;1662;49.310;8.134;2022-09-03T05:49:02;3.17;;;3.03;;
3299;SDS011;1662;49.310;8.134;2022-09-03T05:51:29;5.50;;;5.10;;
3299;SDS011;1662;49.310;8.134;2022-09-03T05:53:56;4.83;;;4.63;;
3299;SDS011;1662;49.310;8.134;2022-09-03T05:56:23;4.40;;;4.07;;
3299;SDS011;1662;49.310;8.134;2022-09-03T05:58:50;5.10;;;3.90;;
3299;SDS011;1662;49.310;8.134;2022-09-03T06:01:22;4.53;;;4.13;;
3299;SDS011;1662;49.310;8.134;2022-09-03T06:03:53;5.60;;;4.90;;
3299;SDS011;1662;49.310;8.134;2022-09-03T06:06:20;3.83;;;3.63;;
3299;SDS011;1662;49.310;8.134;2022-09-03T06:08:52;5.50;;;4.30;;
3299;SDS011;1662;49.310;8.134;2022-09-03T06:11:22;5.63;;;4.60;;
3299;SDS011;1662;49.310;8.134;2022-09-03T06:13:55;4.87;;;4.57;;
3299;SDS011;1662;49.310;8.134;2022-09-03T06:16:22;4.60;;;4.27;;
3299;SDS011;1662;49.310;8.134;2022-09-03T06:18:50;4.67;;;4.43;;
3299;SDS011;1662;49.310;8.134;2022-09-03T06:21:17;3.93;;;3.73;;
3299;SDS011;1662;49.310;8.134;2022-09-03T06:23:47;5.37;;;4.90;;
3299;SDS011;1662;49.310;8.134;2022-09-03T06:26:17;5.33;;;4.90;;
3299;SDS011;1662;49.310;8.134;2022-09-03T06:28:44;7.60;;;4.60;;
3299;SDS011;1662;49.310;8.134;2022-09-03T06:31:13;4.50;;;4.30;;
3299;SDS011;1662;49.310;8.134;2022-09-03T06:33:41;7.43;;;5.17;;
3299;SDS011;1662;49.310;8.134;2022-09-03T06:36:12;5.10;;;4.70;;
3299;SDS011;1662;49.310;8.134;2022-09-03T06:38:42;4.80;;;4.40;;
3299;SDS011;1662;49.310;8.134;2022-09-03T06:41:10;6.17;;;5.20;;
3299;SDS011;1662;49.310;8.134;2022-09-03T06:43:47;4.23;;;4.00;;
3299;SDS011;1662;49.310;8.134;2022-09-03T06:46:14;4.97;;;3.67;;
3299;SDS011;1662;49.310;8.134;2022-09-03T06:48:42;4.47;;;4.07;;
3299;SDS011;1662;49.310;8.134;2022-09-03T06:51:08;4.80;;;4.43;;
3299;SDS011;1662;49.310;8.134;2022-09-03T06:53:37;5.03;;;4.73;;
3299;SDS011;1662;49.310;8.134;2022-09-03T06:56:08;4.73;;;4.30;;
3299;SDS011;1662;49.310;8.134;2022-09-03T06:58:39;4.20;;;4.00;;
3299;SDS011;1662;49.310;8.134;2022-09-03T07:03:46;5.37;;;4.97;;
3299;SDS011;1662;49.310;8.134;2022-09-03T07:06:17;4.80;;;4.50;;
3299;SDS011;1662;49.310;8.134;2022-09-03T07:08:44;4.63;;;4.33;;
3299;SDS011;1662;49.310;8.134;2022-09-03T07:11:14;5.17;;;4.30;;
3299;SDS011;1662;49.310;8.134;2022-09-03T07:13:44;5.13;;;4.10;;
3299;SDS011;1662;49.310;8.134;2022-09-03T07:16:21;5.30;;;5.00;;
3299;SDS011;1662;49.310;8.134;2022-09-03T07:18:49;5.17;;;4.80;;
3299;SDS011;1662;49.310;8.134;2022-09-03T07:21:17;4.77;;;4.50;;
3299;SDS011;1662;49.310;8.134;2022-09-03T07:23:45;4.57;;;4.27;;
3299;SDS011;1662;49.310;8.134;2022-09-03T07:26:13;7.40;;;5.43;;
3299;SDS011;1662;49.310;8.134;2022-09-03T07:28:41;4.83;;;4.60;;
3299;SDS011;1662;49.310;8.134;2022-09-03T07:31:17;6.93;;;4.80;;
3299;SDS011;1662;49.310;8.134;2022-09-03T07:33:50;5.20;;;4.80;;
3299;SDS011;1662;49.310;8.134;2022-09-03T07:36:19;5.33;;;5.13;;
3299;SDS011;1662;49.310;8.134;2022-09-03T07:38:46;5.20;;;5.00;;
3299;SDS011;1662;49.310;8.134;2022-09-03T07:41:12;8.10;;;5.20;;
3299;SDS011;1662;49.310;8.134;2022-09-03T07:43:40;5.60;;;5.20;;
3299;SDS011;1662;49.310;8.134;2022-09-03T07:46:16;8.40;;;6.40;;
3299;SDS011;1662;49.310;8.134;2022-09-03T07:48:47;5.90;;;5.47;;
3299;SDS011;1662;49.310;8.134;2022-09-03T07:51:15;6.13;;;5.60;;
3299;SDS011;1662;49.310;8.134;2022-09-03T07:53:41;5.40;;;5.00;;
3299;SDS011;1662;49.310;8.134;2022-09-03T07:56:08;6.07;;;5.67;;
3299;SDS011;1662;49.310;8.134;2022-09-03T07:58:37;5.80;;;5.17;;
3299;SDS011;1662;49.310;8.134;2022-09-03T08:01:06;5.53;;;5.03;;
3299;SDS011;1662;49.310;8.134;2022-09-03T08:03:34;4.53;;;4.13;;
3299;SDS011;1662;49.310;8.134;2022-09-03T08:06:00;4.93;;;4.70;;
3299;SDS011;1662;49.310;8.134;2022-09-03T08:08:27;5.13;;;4.73;;
3299;SDS011;1662;49.310;8.134;2022-09-03T08:10:53;4.73;;;4.47;;
3299;SDS011;1662;49.310;8.134;2022-09-03T08:13:19;4.90;;;4.60;;
3299;SDS011;1662;49.310;8.134;2022-09-03T08:15:54;6.37;;;4.80;;
3299;SDS011;1662;49.310;8.134;2022-09-03T08:18:20;5.87;;;5.57;;
3299;SDS011;1662;49.310;8.134;2022-09-03T08:20:47;6.10;;;5.60;;
3299;SDS011;1662;49.310;8.134;2022-09-03T08:23:12;6.43;;;5.83;;
3299;SDS011;1662;49.310;8.134;2022-09-03T08:25:40;6.73;;;6.07;;
3299;SDS011;1662;49.310;8.134;2022-09-03T08:28:07;7.70;;;7.00;;
3299;SDS011;1662;49.310;8.134;2022-09-03T08:30:35;6.80;;;6.40;;
3299;SDS011;1662;49.310;8.134;2022-09-03T08:33:01;7.13;;;6.57;;
3299;SDS011;1662;49.310;8.134;2022-09-03T08:35:28;6.57;;;6.10;;
3299;SDS011;1662;49.310;8.134;2022-09-03T08:37:56;7.63;;;6.90;;
3299;SDS011;1662;49.310;8.134;2022-09-03T08:40:21;7.07;;;5.93;;
3299;SDS011;1662;49.310;8.134;2022-09-03T08:42:55;6.77;;;6.37;;
3299;SDS011;1662;49.310;8.134;2022-09-03T08:45:30;6.37;;;5.87;;
3299;SDS011;1662;49.310;8.134;2022-09-03T08:48:04;7.33;;;6.83;;
3299;SDS011;1662;49.310;8.134;2022-09-03T08:50:38;7.03;;;6.40;;
3299;SDS011;1662;49.310;8.134;2022-09-03T08:53:18;6.60;;;6.20;;
3299;SDS011;1662;49.310;8.134;2022-09-03T08:56:08;6.73;;;6.20;;
3299;SDS011;1662;49.310;8.134;2022-09-03T08:58:43;6.93;;;6.33;;
3299;SDS011;1662;49.310;8.134;2022-09-03T09:20:48;6.60;;;6.17;;
3299;SDS011;1662;49.310;8.134;2022-09-03T09:24:03;8.23;;;7.67;;
3299;SDS011;1662;49.310;8.134;2022-09-03T09:26:12;6.73;;;6.23;;
3299;SDS011;1662;49.310;8.134;2022-09-03T09:28:41;7.13;;;6.70;;
3299;SDS011;1662;49.310;8.134;2022-09-03T09:31:10;8.47;;;7.87;;
3299;SDS011;1662;49.310;8.134;2022-09-03T09:33:40;7.90;;;7.40;;
3299;SDS011;1662;49.310;8.134;2022-09-03T09:36:10;8.80;;;8.10;;
3299;SDS011;1662;49.310;8.134;2022-09-03T09:38:40;8.33;;;7.63;;
3299;SDS011;1662;49.310;8.134;2022-09-03T09:41:25;6.90;;;6.40;;
3299;SDS011;1662;49.310;8.134;2022-09-03T09:44:01;9.00;;;8.30;;
3299;SDS011;1662;49.310;8.134;2022-09-03T09:46:36;8.63;;;7.93;;
3299;SDS011;1662;49.310;8.134;2022-09-03T09:49:07;7.73;;;7.03;;
3299;SDS011;1662;49.310;8.134;2022-09-03T09:52:01;9.43;;;8.40;;
3299;SDS011;1662;49.310;8.134;2022-09-03T09:54:27;10.07;;;9.37;;
3299;SDS011;1662;49.310;8.134;2022-09-03T09:57:01;9.10;;;8.30;;
3299;SDS011;1662;49.310;8.134;2022-09-03T09:59:28;8.30;;;7.80;;
3299;SDS011;1662;49.310;8.134;2022-09-03T10:02:16;9.40;;;8.70;;
3299;SDS011;1662;49.310;8.134;2022-09-03T10:04:51;8.70;;;8.00;;
3299;SDS011;1662;49.310;8.134;2022-09-03T10:07:30;8.60;;;8.00;;
3299;SDS011;1662;49.310;8.134;2022-09-03T10:09:59;10.57;;;9.87;;
3299;SDS011;1662;49.310;8.134;2022-09-03T10:12:42;8.40;;;7.80;;
3299;SDS011;1662;49.310;8.134;2022-09-03T10:23:57;10.90;;;10.00;;
3299;SDS011;1662;49.310;8.134;2022-09-03T10:27:05;9.87;;;9.27;;
3299;SDS011;1662;49.310;8.134;2022-09-03T10:29:36;11.13;;;10.17;;
3299;SDS011;1662;49.310;8.134;2022-09-03T10:32:13;13.13;;;11.10;;
3299;SDS011;1662;49.310;8.134;2022-09-03T10:57:17;6.57;;;6.20;;
3299;SDS011;1662;49.310;8.134;2022-09-03T11:07:34;8.17;;;7.57;;
3299;SDS011;1662;49.310;8.134;2022-09-03T11:12:44;9.60;;;8.70;;
3299;SDS011;1662;49.310;8.134;2022-09-03T11:17:55;7.83;;;7.23;;
3299;SDS011;1662;49.310;8.134;2022-09-03T11:20:39;7.40;;;6.90;;
3299;SDS011;1662;49.310;8.134;2022-09-03T11:23:06;8.60;;;8.00;;
3299;SDS011;1662;49.310;8.134;2022-09-03T11:25:41;5.30;;;5.07;;
3299;SDS011;1662;49.310;8.134;2022-09-03T11:33:38;6.43;;;6.00;;
3299;SDS011;1662;49.310;8.134;2022-09-03T11:36:08;6.13;;;5.83;;
3299;SDS011;1662;49.310;8.134;2022-09-03T11:38:34;5.37;;;5.07;;
3299;SDS011;1662;49.310;8.134;2022-09-03T11:43:36;5.20;;;5.00;;
3299;SDS011;1662;49.310;8.134;2022-09-03T11:48:46;5.03;;;4.63;;
3299;SDS011;1662;49.310;8.134;2022-09-03T11:51:20;4.67;;;4.47;;
3299;SDS011;1662;49.310;8.134;2022-09-03T11:56:47;5.00;;;4.80;;
3299;SDS011;1662;49.310;8.134;2022-09-03T11:59:23;5.07;;;4.80;;
3299;SDS011;1662;49.310;8.134;2022-09-03T12:01:56;4.97;;;4.67;;
3299;SDS011;1662;49.310;8.134;2022-09-03T12:04:31;4.87;;;4.47;;
3299;SDS011;1662;49.310;8.134;2022-09-03T12:07:11;5.80;;;5.40;;
3299;SDS011;1662;49.310;8.134;2022-09-03T12:15:04;4.87;;;4.67;;
3299;SDS011;1662;49.310;8.134;2022-09-03T12:17:46;5.03;;;4.73;;
3299;SDS011;1662;49.310;8.134;2022-09-03T12:23:29;5.10;;;4.80;;
3299;SDS011;1662;49.310;8.134;2022-09-03T12:25:58;5.27;;;5.07;;
3299;SDS011;1662;49.310;8.134;2022-09-03T12:28:30;3.77;;;3.67;;
3299;SDS011;1662;49.310;8.134;2022-09-03T12:31:07;4.90;;;4.60;;
3299;SDS011;1662;49.310;8.134;2022-09-03T12:33:47;4.23;;;4.03;;
3299;SDS011;1662;49.310;8.134;2022-09-03T12:36:23;4.50;;;4.20;;
3299;SDS011;1662;49.310;8.134;2022-09-03T12:38:52;5.50;;;5.20;;
3299;SDS011;1662;49.310;8.134;2022-09-03T12:41:28;4.50;;;4.10;;
3299;SDS011;1662;49.310;8.134;2022-09-03T12:43:58;4.33;;;4.00;;
3299;SDS011;1662;49.310;8.134;2022-09-03T12:46:26;5.40;;;5.00;;
3299;SDS011;1662;49.310;8.134;2022-09-03T12:51:36;4.30;;;4.20;;
3299;SDS011;1662;49.310;8.134;2022-09-03T12:54:04;4.60;;;4.30;;
3299;SDS011;1662;49.310;8.134;2022-09-03T12:56:33;5.30;;;4.90;;
3299;SDS011;1662;49.310;8.134;2022-09-03T12:59:03;4.33;;;4.13;;
3299;SDS011;1662;49.310;8.134;2022-09-03T13:01:44;4.40;;;4.20;;
3299;SDS011;1662;49.310;8.134;2022-09-03T13:04:14;4.80;;;4.60;;
3299;SDS011;1662;49.310;8.134;2022-09-03T13:09:24;4.23;;;4.13;;
3299;SDS011;1662;49.310;8.134;2022-09-03T13:11:54;4.23;;;4.03;;
3299;SDS011;1662;49.310;8.134;2022-09-03T13:14:23;3.70;;;3.60;;
3299;SDS011;1662;49.310;8.134;2022-09-03T13:28:49;4.87;;;4.60;;
3299;SDS011;1662;49.310;8.134;2022-09-03T13:31:46;4.03;;;3.93;;
3299;SDS011;1662;49.310;8.134;2022-09-03T13:34:21;4.47;;;4.27;;
3299;SDS011;1662;49.310;8.134;2022-09-03T13:39:57;5.30;;;5.00;;
3299;SDS011;1662;49.310;8.134;2022-09-03T13:42:37;4.90;;;4.70;;
3299;SDS011;1662;49.310;8.134;2022-09-03T13:53:45;4.87;;;4.77;;
3299;SDS011;1662;49.310;8.134;2022-09-03T13:59:30;5.20;;;5.00;;
3299;SDS011;1662;49.310;8.134;2022-09-03T14:11:26;5.63;;;5.43;;
3299;SDS011;1662;49.310;8.134;2022-09-03T14:13:58;6.30;;;6.00;;
3299;SDS011;1662;49.310;8.134;2022-09-03T14:16:41;6.00;;;5.70;;
3299;SDS011;1662;49.310;8.134;2022-09-03T14:19:14;5.83;;;5.63;;
3299;SDS011;1662;49.310;8.134;2022-09-03T14:27:24;6.60;;;6.30;;
3299;SDS011;1662;49.310;8.134;2022-09-03T14:29:52;6.07;;;5.77;;
3299;SDS011;1662;49.310;8.134;2022-09-03T15:00:49;3.30;;;3.10;;
3299;SDS011;1662;49.310;8.134;2022-09-03T15:09:20;3.70;;;3.57;;
3299;SDS011;1662;49.310;8.134;2022-09-03T15:11:48;3.40;;;3.20;;
3299;SDS011;1662;49.310;8.134;2022-09-03T15:14:59;3.17;;;2.97;;
3299;SDS011;1662;49.310;8.134;2022-09-03T15:17:23;3.43;;;3.23;;
3299;SDS011;1662;49.310;8.134;2022-09-03T15:25:36;3.80;;;3.50;;
3299;SDS011;1662;49.310;8.134;2022-09-03T15:28:37;3.10;;;2.90;;
3299;SDS011;1662;49.310;8.134;2022-09-03T15:36:48;3.40;;;3.20;;
3299;SDS011;1662;49.310;8.134;2022-09-03T15:39:16;3.53;;;3.43;;
3299;SDS011;1662;49.310;8.134;2022-09-03T15:41:58;3.53;;;3.33;;
3299;SDS011;1662;49.310;8.134;2022-09-03T15:44:35;4.50;;;4.20;;
3299;SDS011;1662;49.310;8.134;2022-09-03T15:47:35;3.80;;;3.60;;
3299;SDS011;1662;49.310;8.134;2022-09-03T15:50:24;4.67;;;4.37;;
3299;SDS011;1662;49.310;8.134;2022-09-03T15:55:24;4.50;;;4.30;;
3299;SDS011;1662;49.310;8.134;2022-09-03T16:03:21;5.10;;;4.80;;
3299;SDS011;1662;49.310;8.134;2022-09-03T16:06:00;6.00;;;5.60;;
3299;SDS011;1662;49.310;8.134;2022-09-03T16:08:58;8.20;;;7.40;;
3299;SDS011;1662;49.310;8.134;2022-09-03T16:11:44;8.20;;;7.53;;
3299;SDS011;1662;49.310;8.134;2022-09-03T16:17:29;9.70;;;7.80;;
3299;SDS011;1662;49.310;8.134;2022-09-03T16:23:35;7.23;;;6.70;;
3299;SDS011;1662;49.310;8.134;2022-09-03T16:34:00;7.73;;;6.90;;
3299;SDS011;1662;49.310;8.134;2022-09-03T16:36:51;7.00;;;6.50;;
3299;SDS011;1662;49.310;8.134;2022-09-03T16:45:18;6.70;;;6.30;;
3299;SDS011;1662;49.310;8.134;2022-09-03T16:50:47;7.57;;;6.97;;
3299;SDS011;1662;49.310;8.134;2022-09-03T17:07:55;7.87;;;7.27;;
3299;SDS011;1662;49.310;8.134;2022-09-03T17:30:00;8.10;;;7.50;;
3299;SDS011;1662;49.310;8.134;2022-09-03T17:36:06;8.57;;;7.87;;
3299;SDS011;1662;49.310;8.134;2022-09-03T17:50:08;8.27;;;7.67;;
3299;SDS011;1662;49.310;8.134;2022-09-03T17:53:09;7.30;;;6.80;;
3299;SDS011;1662;49.310;8.134;2022-09-03T17:58:19;4.90;;;4.60;;
3299;SDS011;1662;49.310;8.134;2022-09-03T18:00:55;5.60;;;5.30;;
3299;SDS011;1662;49.310;8.134;2022-09-03T18:05:57;4.63;;;4.33;;
3299;SDS011;1662;49.310;8.134;2022-09-03T18:11:22;4.17;;;3.97;;
3299;SDS011;1662;49.310;8.134;2022-09-03T18:16:51;4.37;;;4.07;;
3299;SDS011;1662;49.310;8.134;2022-09-03T18:22:19;3.60;;;3.40;;
3299;SDS011;1662;49.310;8.134;2022-09-03T18:25:08;3.83;;;3.67;;
3299;SDS011;1662;49.310;8.134;2022-09-03T18:27:57;3.53;;;3.23;;
3299;SDS011;1662;49.310;8.134;2022-09-03T18:30:46;5.43;;;4.93;;
3299;SDS011;1662;49.310;8.134;2022-09-03T18:33:30;6.33;;;5.80;;
3299;SDS011;1662;49.310;8.134;2022-09-03T18:36:14;6.90;;;6.37;;
3299;SDS011;1662;49.310;8.134;2022-09-03T18:39:04;7.73;;;7.13;;
3299;SDS011;1662;49.310;8.134;2022-09-03T18:45:29;8.20;;;7.53;;
3299;SDS011;1662;49.310;8.134;2022-09-03T18:55:01;8.77;;;6.73;;
3299;SDS011;1662;49.310;8.134;2022-09-03T18:58:15;4.90;;;4.70;;
3299;SDS011;1662;49.310;8.134;2022-09-03T19:01:10;4.50;;;4.30;;
3299;SDS011;1662;49.310;8.134;2022-09-03T19:04:21;5.63;;;5.23;;
3299;SDS011;1662;49.310;8.134;2022-09-03T19:07:07;6.40;;;5.97;;
3299;SDS011;1662;49.310;8.134;2022-09-03T19:10:13;6.23;;;5.83;;
3299;SDS011;1662;49.310;8.134;2022-09-03T19:22:02;5.83;;;5.23;;
3299;SDS011;1662;49.310;8.134;2022-09-03T19:24:55;5.83;;;5.53;;
3299;SDS011;1662;49.310;8.134;2022-09-03T19:36:55;7.23;;;6.40;;
3299;SDS011;1662;49.310;8.134;2022-09-03T19:52:07;8.13;;;6.73;;
3299;SDS011;1662;49.310;8.134;2022-09-03T19:55:03;6.67;;;6.17;;
3299;SDS011;1662;49.310;8.134;2022-09-03T19:57:48;7.30;;;6.70;;
3299;SDS011;1662;49.310;8.134;2022-09-03T20:00:38;5.93;;;5.60;;
3299;SDS011;1662;49.310;8.134;2022-09-03T20:03:23;6.10;;;5.70;;
3299;SDS011;1662;49.310;8.134;2022-09-03T20:06:08;6.60;;;6.10;;
3299;SDS011;1662;49.310;8.134;2022-09-03T20:08:52;6.37;;;5.93;;
3299;SDS011;1662;49.310;8.134;2022-09-03T20:11:45;6.97;;;6.37;;
3299;SDS011;1662;49.310;8.134;2022-09-03T20:14:14;6.17;;;5.67;;
3299;SDS011;1662;49.310;8.134;2022-09-03T20:37:43;5.80;;;5.40;;
3299;SDS011;1662;49.310;8.134;2022-09-03T20:51:30;6.00;;;5.60;;
3299;SDS011;1662;49.310;8.134;2022-09-03T21:00:11;5.20;;;5.00;;
3299;SDS011;1662;49.310;8.134;2022-09-03T21:02:59;6.30;;;5.80;;
3299;SDS011;1662;49.310;8.134;2022-09-03T21:14:04;6.40;;;6.00;;
3299;SDS011;1662;49.310;8.134;2022-09-03T21:24:51;6.87;;;6.37;;
3299;SDS011;1662;49.310;8.134;2022-09-03T21:27:25;7.27;;;6.77;;
3299;SDS011;1662;49.310;8.134;2022-09-03T21:35:34;5.53;;;5.13;;
3299;SDS011;1662;49.310;8.134;2022-09-03T21:40:37;4.50;;;4.30;;
3299;SDS011;1662;49.310;8.134;2022-09-03T21:46:05;5.67;;;4.37;;
3299;SDS011;1662;49.310;8.134;2022-09-03T21:48:38;5.63;;;3.80;;
3299;SDS011;1662;49.310;8.134;2022-09-03T21:51:12;3.63;;;3.50;;
3299;SDS011;1662;49.310;8.134;2022-09-03T21:53:47;3.80;;;3.50;;
3299;SDS011;1662;49.310;8.134;2022-09-03T21:56:19;5.10;;;4.00;;
3299;SDS011;1662;49.310;8.134;2022-09-03T22:04:09;5.10;;;4.80;;
3299;SDS011;1662;49.310;8.134;2022-09-03T22:06:55;6.07;;;4.70;;
3299;SDS011;1662;49.310;8.134;2022-09-03T22:09:43;5.20;;;4.80;;
3299;SDS011;1662;49.310;8.134;2022-09-03T22:15:14;3.93;;;2.97;;
3299;SDS011;1662;49.310;8.134;2022-09-03T22:17:47;4.40;;;4.10;;
3299;SDS011;1662;49.310;8.134;2022-09-03T22:20:28;3.57;;;3.37;;
3299;SDS011;1662;49.310;8.134;2022-09-03T22:22:54;4.37;;;4.13;;
3299;SDS011;1662;49.310;8.134;2022-09-03T22:28:28;4.77;;;4.10;;
3299;SDS011;1662;49.310;8.134;2022-09-03T22:31:05;4.50;;;4.30;;
3299;SDS011;1662;49.310;8.134;2022-09-03T22:33:42;5.03;;;4.67;;
3299;SDS011;1662;49.310;8.134;2022-09-03T22:36:12;5.00;;;4.70;;
3299;SDS011;1662;49.310;8.134;2022-09-03T22:46:49;7.53;;;4.20;;
3299;SDS011;1662;49.310;8.134;2022-09-03T22:49:44;4.77;;;4.43;;
3299;SDS011;1662;49.310;8.134;2022-09-03T22:52:28;4.23;;;3.93;;
3299;SDS011;1662;49.310;8.134;2022-09-03T22:57:48;5.83;;;3.90;;
3299;SDS011;1662;49.310;8.134;2022-09-03T23:00:16;5.00;;;4.40;;
3299;SDS011;1662;49.310;8.134;2022-09-03T23:02:42;4.73;;;4.47;;
3299;SDS011;1662;49.310;8.134;2022-09-03T23:07:48;3.60;;;3.50;;
3299;SDS011;1662;49.310;8.134;2022-09-03T23:16:08;3.13;;;2.77;;
3299;SDS011;1662;49.310;8.134;2022-09-03T23:18:52;2.90;;;2.80;;
3299;SDS011;1662;49.310;8.134;2022-09-03T23:21:37;3.10;;;2.90;;
3299;SDS011;1662;49.310;8.134;2022-09-03T23:26:46;2.83;;;2.70;;
3299;SDS011;1662;49.310;8.134;2022-09-03T23:29:25;3.20;;;2.90;;
3299;SDS011;1662;49.310;8.134;2022-09-03T23:31:57;3.17;;;2.97;;
3299;SDS011;1662;49.310;8.134;2022-09-03T23:34:24;5.40;;;2.80;;
3299;SDS011;1662;49.310;8.134;2022-09-03T23:44:50;4.87;;;3.00;;
3299;SDS011;1662;49.310;8.134;2022-09-03T23:50:15;2.90;;;2.70;;
3299;SDS011;1662;49.310;8.134;2022-09-03T23:53:04;2.87;;;2.77;;
3299;SDS011;1662;49.310;8.134;2022-09-03T23:58:32;2.70;;;2.60;;
